Time;durP1;ratioP1;P1;durP2;ratioP2;P2;SDS_P1;SDS_P2;PMS_P1;PMS_P2;Temp;Humidity;BMP_temperature;BMP_pressure;BME280_temperature;BME280_humidity;BME280_pressure;Samples;Min_cycle;Max_cycle;Signal;HPM_P1;HPM_P2
2023/04/19 00:00:07;;;;;;;18.33;13.90;;;8.20;99.90;;;;;;7375415;19;20015;-62
2023/04/19 00:02:34;;;;;;;15.47;11.83;;;8.20;99.90;;;;;;7375858;19;20470;-62
2023/04/19 00:05:01;;;;;;;13.60;12.13;;;8.20;99.90;;;;;;7373757;19;20338;-62
2023/04/19 00:07:27;;;;;;;14.05;12.23;;;8.20;99.90;;;;;;7368361;19;22565;-62
2023/04/19 00:09:54;;;;;;;16.90;11.95;;;8.20;99.90;;;;;;7368249;19;20061;-63
2023/04/19 00:12:20;;;;;;;14.75;12.05;;;8.20;99.90;;;;;;7365471;19;20023;-62
2023/04/19 00:14:47;;;;;;;16.92;13.05;;;8.20;99.90;;;;;;7370934;19;20436;-62
2023/04/19 00:17:13;;;;;;;15.57;12.30;;;8.20;99.90;;;;;;7371898;19;20050;-62
2023/04/19 00:19:40;;;;;;;13.38;11.48;;;8.20;99.90;;;;;;7373224;19;20081;-63
2023/04/19 00:22:06;;;;;;;14.57;11.43;;;8.20;99.90;;;;;;7371645;19;20028;-63
2023/04/19 00:24:34;;;;;;;19.15;12.38;;;8.10;99.90;;;;;;7368478;19;20025;-66
2023/04/19 00:27:01;;;;;;;16.17;12.35;;;8.10;99.90;;;;;;7374586;19;20019;-65
2023/04/19 00:29:29;;;;;;;15.98;11.80;;;8.10;99.90;;;;;;7373338;19;20043;-66
2023/04/19 00:31:55;;;;;;;14.05;11.32;;;8.10;99.90;;;;;;7370106;19;20056;-66
2023/04/19 00:34:23;;;;;;;16.15;12.15;;;8.00;99.90;;;;;;7366686;19;20082;-65
2023/04/19 00:36:50;;;;;;;15.02;11.60;;;8.00;99.90;;;;;;7373869;19;20022;-66
2023/04/19 00:39:19;;;;;;;13.32;9.82;;;8.00;99.90;;;;;;7369986;19;20022;-66
2023/04/19 00:41:45;;;;;;;14.15;12.02;;;8.00;99.90;;;;;;7366870;19;20024;-66
2023/04/19 00:44:11;;;;;;;14.38;11.38;;;8.00;99.90;;;;;;7359894;19;20026;-66
2023/04/19 00:46:39;;;;;;;14.70;11.23;;;8.00;99.90;;;;;;7372389;19;20777;-66
2023/04/19 00:49:05;;;;;;;14.43;11.43;;;7.90;99.90;;;;;;7373933;19;20049;-66
2023/04/19 00:51:33;;;;;;;13.45;10.95;;;8.00;99.90;;;;;;7371285;19;20968;-66
2023/04/19 00:54:01;;;;;;;12.77;9.80;;;7.90;99.90;;;;;;7369782;19;20161;-65
2023/04/19 00:56:28;;;;;;;13.80;11.18;;;8.00;99.90;;;;;;7371868;19;20086;-67
2023/04/19 00:58:55;;;;;;;12.98;11.55;;;8.00;99.90;;;;;;7368499;19;20022;-62
2023/04/19 01:01:22;;;;;;;13.25;10.27;;;8.00;99.90;;;;;;7369394;19;20022;-62
2023/04/19 01:03:55;;;;;;;13.32;11.50;;;7.90;99.90;;;;;;7368183;19;20022;-62
2023/04/19 01:06:21;;;;;;;13.18;11.35;;;7.90;99.90;;;;;;7369374;19;20027;-62
2023/04/19 01:09:08;;;;;;;15.25;11.13;;;7.90;99.90;;;;;;7366947;19;20648;-65
2023/04/19 01:11:34;;;;;;;14.45;10.18;;;7.90;99.90;;;;;;7373324;19;20025;-63
2023/04/19 01:14:03;;;;;;;13.77;9.95;;;7.90;99.90;;;;;;7371873;19;20022;-66
2023/04/19 01:16:29;;;;;;;12.10;9.93;;;7.90;99.90;;;;;;7369361;19;20392;-65
2023/04/19 01:18:55;;;;;;;14.18;10.38;;;7.90;99.90;;;;;;7368853;19;20090;-66
2023/04/19 01:21:22;;;;;;;12.75;10.13;;;7.90;99.90;;;;;;7367663;19;20042;-65
2023/04/19 01:23:51;;;;;;;12.68;9.63;;;7.90;99.90;;;;;;7373141;19;20039;-65
2023/04/19 01:26:18;;;;;;;15.07;10.40;;;7.90;99.90;;;;;;7366217;19;20010;-65
2023/04/19 01:28:44;;;;;;;12.10;9.88;;;7.90;99.90;;;;;;7366877;19;20081;-66
2023/04/19 01:31:11;;;;;;;12.50;10.00;;;8.00;99.90;;;;;;7366076;19;20022;-66
2023/04/19 01:33:37;;;;;;;12.48;9.93;;;8.00;99.90;;;;;;7367449;19;20983;-65
2023/04/19 01:36:04;;;;;;;13.13;9.45;;;8.00;99.90;;;;;;7368161;19;20524;-66
2023/04/19 01:38:30;;;;;;;11.75;9.63;;;8.00;99.90;;;;;;7359287;19;20901;-65
2023/04/19 01:40:57;;;;;;;12.88;9.85;;;8.00;99.90;;;;;;7369990;19;20022;-66
2023/04/19 01:43:25;;;;;;;12.25;9.95;;;8.00;99.90;;;;;;7366732;19;20718;-63
2023/04/19 01:45:52;;;;;;;14.20;10.32;;;8.00;99.90;;;;;;7367424;19;20019;-63
2023/04/19 01:48:19;;;;;;;13.80;10.32;;;8.00;99.90;;;;;;7368715;19;20036;-63
2023/04/19 01:50:49;;;;;;;15.82;10.02;;;7.90;99.90;;;;;;7371207;19;20018;-63
2023/04/19 01:53:15;;;;;;;12.52;9.23;;;7.90;99.90;;;;;;7373032;19;20018;-63
2023/04/19 01:55:42;;;;;;;12.60;10.45;;;7.90;99.90;;;;;;7371801;19;20014;-63
2023/04/19 01:58:08;;;;;;;11.93;9.13;;;7.90;99.90;;;;;;7368635;19;20018;-63
2023/04/19 02:00:35;;;;;;;11.45;9.73;;;7.90;99.90;;;;;;7369052;19;20531;-66
2023/04/19 02:03:09;;;;;;;14.88;9.82;;;7.90;99.90;;;;;;7370311;19;20025;-66
2023/04/19 02:05:38;;;;;;;12.82;9.40;;;7.80;99.90;;;;;;7365056;19;20018;-65
2023/04/19 02:08:04;;;;;;;13.63;9.90;;;7.80;99.90;;;;;;7366571;19;20040;-66
2023/04/19 02:10:31;;;;;;;13.15;9.50;;;7.80;99.90;;;;;;7366755;19;20029;-65
2023/04/19 02:12:57;;;;;;;13.50;10.23;;;7.80;99.90;;;;;;7366874;19;20022;-66
2023/04/19 02:15:23;;;;;;;15.20;10.23;;;7.70;99.90;;;;;;7366229;19;20367;-66
2023/04/19 02:17:50;;;;;;;12.45;9.82;;;7.70;99.90;;;;;;7367252;19;20022;-66
2023/04/19 02:20:17;;;;;;;12.38;9.82;;;7.60;99.90;;;;;;7367894;19;20025;-67
2023/04/19 02:22:43;;;;;;;12.05;9.20;;;7.60;99.90;;;;;;7368447;19;20027;-66
2023/04/19 02:25:10;;;;;;;12.45;9.88;;;7.50;99.90;;;;;;7364256;19;20676;-66
2023/04/19 02:27:38;;;;;;;11.80;9.98;;;7.40;99.90;;;;;;7367037;19;20018;-66
2023/04/19 02:30:05;;;;;;;13.50;10.35;;;7.40;99.90;;;;;;7366085;19;20083;-63
2023/04/19 02:32:33;;;;;;;11.80;9.68;;;7.30;99.90;;;;;;7367772;19;20018;-65
2023/04/19 02:34:59;;;;;;;14.88;11.30;;;7.20;99.90;;;;;;7363891;19;20074;-66
2023/04/19 02:37:26;;;;;;;15.27;10.82;;;7.10;99.90;;;;;;7366871;19;20843;-66
2023/04/19 02:39:55;;;;;;;14.52;10.82;;;7.10;99.90;;;;;;7360913;19;20018;-67
2023/04/19 02:42:21;;;;;;;13.57;11.00;;;7.10;99.90;;;;;;7366227;19;20017;-63
2023/04/19 02:44:47;;;;;;;15.27;11.57;;;7.10;99.90;;;;;;7364578;19;20027;-66
2023/04/19 02:47:14;;;;;;;13.45;11.27;;;7.00;99.90;;;;;;7362586;19;20015;-63
2023/04/19 02:49:41;;;;;;;15.95;11.15;;;7.00;99.90;;;;;;7368613;19;20018;-63
2023/04/19 02:52:09;;;;;;;14.13;11.02;;;6.90;99.90;;;;;;7365215;19;20027;-63
2023/04/19 02:54:38;;;;;;;13.98;11.00;;;6.90;99.90;;;;;;7369782;19;20396;-63
2023/04/19 02:57:04;;;;;;;14.30;11.63;;;6.80;99.90;;;;;;7362307;19;20037;-62
2023/04/19 02:59:30;;;;;;;15.52;12.32;;;6.80;99.90;;;;;;7368662;19;22948;-65
2023/04/19 03:01:59;;;;;;;15.40;12.20;;;6.80;99.90;;;;;;7368017;19;20011;-65
2023/04/19 03:04:27;;;;;;;16.92;12.73;;;6.80;99.90;;;;;;7367263;19;20081;-66
2023/04/19 03:06:54;;;;;;;15.32;12.00;;;6.70;99.90;;;;;;7361351;19;20026;-66
2023/04/19 03:09:21;;;;;;;13.48;10.65;;;6.70;99.90;;;;;;7364481;19;20015;-63
2023/04/19 03:11:47;;;;;;;15.95;11.63;;;6.70;99.90;;;;;;7363269;19;20018;-62
2023/04/19 03:14:16;;;;;;;16.98;12.32;;;6.70;99.90;;;;;;7366642;19;20018;-63
2023/04/19 03:16:42;;;;;;;17.33;12.07;;;6.60;99.90;;;;;;7366398;19;20018;-63
2023/04/19 03:19:09;;;;;;;15.57;11.77;;;6.60;99.90;;;;;;7364431;19;20025;-63
2023/04/19 03:21:42;;;;;;;19.38;12.93;;;6.60;99.90;;;;;;7371773;19;20074;-62
2023/04/19 03:24:09;;;;;;;15.35;11.65;;;6.60;99.90;;;;;;7366682;19;20022;-65
2023/04/19 03:26:38;;;;;;;18.95;12.95;;;6.50;99.90;;;;;;7368128;19;20030;-66
2023/04/19 03:29:05;;;;;;;16.73;11.98;;;6.50;99.90;;;;;;7365861;19;20469;-66
2023/04/19 03:31:37;;;;;;;;;;;6.50;99.90;;;;;;7369293;19;20331;-66
2023/04/19 03:34:04;;;;;;;16.08;12.68;;;6.50;99.90;;;;;;7366879;19;19922;-63
2023/04/19 03:36:38;;;;;;;16.95;12.32;;;6.40;99.90;;;;;;7363900;19;20038;-63
2023/04/19 03:39:04;;;;;;;15.75;12.25;;;6.40;99.90;;;;;;7365336;19;20018;-65
2023/04/19 03:41:42;;;;;;;16.20;12.15;;;6.40;99.90;;;;;;7365424;19;20530;-66
2023/04/19 03:44:32;;;;;;;17.52;12.05;;;6.40;99.90;;;;;;7365063;19;20022;-66
2023/04/19 03:46:58;;;;;;;13.88;11.13;;;6.30;99.90;;;;;;7363138;19;20503;-65
2023/04/19 03:49:28;;;;;;;16.90;11.70;;;6.30;99.90;;;;;;7364364;19;20025;-66
2023/04/19 03:52:06;;;;;;;16.88;10.90;;;6.20;99.90;;;;;;7365577;19;20014;-66
2023/04/19 03:54:33;;;;;;;13.38;10.50;;;6.20;99.90;;;;;;7363278;19;20085;-66
2023/04/19 03:57:01;;;;;;;15.70;10.65;;;6.20;99.90;;;;;;7364268;19;20479;-66
2023/04/19 03:59:29;;;;;;;14.30;11.00;;;6.10;99.90;;;;;;7364019;19;20042;-65
2023/04/19 04:01:57;;;;;;;11.90;9.80;;;6.10;99.90;;;;;;7360220;19;20078;-66
2023/04/19 04:04:23;;;;;;;14.10;10.57;;;6.10;99.90;;;;;;7364616;19;20050;-66
2023/04/19 04:06:50;;;;;;;13.52;10.18;;;6.00;99.90;;;;;;7364101;19;20023;-66
2023/04/19 04:09:16;;;;;;;12.95;10.02;;;6.00;99.90;;;;;;7357614;19;20026;-66
2023/04/19 04:11:43;;;;;;;14.32;11.13;;;5.90;99.90;;;;;;7366104;19;20686;-66
2023/04/19 04:14:10;;;;;;;16.52;11.20;;;5.90;99.90;;;;;;7371492;19;20018;-65
2023/04/19 04:16:38;;;;;;;13.50;9.48;;;6.00;99.90;;;;;;7372984;19;20014;-66
2023/04/19 04:19:04;;;;;;;14.85;10.07;;;5.90;99.90;;;;;;7373052;19;20668;-66
2023/04/19 04:21:35;;;;;;;14.15;9.85;;;5.80;99.90;;;;;;7369772;19;20025;-66
2023/04/19 04:24:04;;;;;;;14.88;11.05;;;5.80;99.90;;;;;;7372222;19;20014;-66
2023/04/19 04:26:43;;;;;;;14.88;9.52;;;5.80;99.90;;;;;;7367549;19;20030;-66
2023/04/19 04:29:25;;;;;;;;;;;5.80;99.90;;;;;;7368727;19;20103;-67
2023/04/19 04:31:56;;;;;;;14.57;10.15;;;5.80;99.90;;;;;;7373526;19;20584;-66
2023/04/19 04:34:26;;;;;;;11.88;10.25;;;5.80;99.90;;;;;;7372280;19;20018;-67
2023/04/19 04:37:02;;;;;;;14.00;9.55;;;5.70;99.90;;;;;;7370536;19;20089;-66
2023/04/19 04:39:33;;;;;;;13.43;10.20;;;5.70;99.90;;;;;;7367074;19;20018;-66
2023/04/19 04:42:02;;;;;;;12.97;9.73;;;5.70;99.90;;;;;;7369177;19;20074;-65
2023/04/19 04:44:28;;;;;;;15.45;9.45;;;5.70;99.90;;;;;;7372970;19;20691;-65
2023/04/19 04:46:55;;;;;;;13.98;9.35;;;5.70;99.90;;;;;;7367913;19;20033;-66
2023/04/19 04:49:25;;;;;;;13.25;9.38;;;5.70;99.90;;;;;;7372387;19;20018;-64
2023/04/19 04:51:51;;;;;;;13.20;8.88;;;5.70;99.90;;;;;;7374524;19;20022;-63
2023/04/19 04:54:19;;;;;;;15.45;9.25;;;5.70;99.90;;;;;;7373694;19;20041;-64
2023/04/19 04:56:46;;;;;;;11.93;8.25;;;5.70;99.90;;;;;;7374899;19;20050;-64
2023/04/19 04:59:13;;;;;;;12.02;9.05;;;5.70;99.90;;;;;;7375541;19;20383;-64
2023/04/19 05:01:43;;;;;;;12.55;8.95;;;5.70;99.90;;;;;;7377438;19;20675;-63
2023/04/19 05:04:09;;;;;;;12.48;8.90;;;5.70;99.90;;;;;;7374759;19;20747;-66
2023/04/19 05:06:39;;;;;;;11.18;9.48;;;5.70;99.90;;;;;;7369135;19;20014;-66
2023/04/19 05:09:06;;;;;;;11.98;8.73;;;5.70;99.90;;;;;;7370999;19;20022;-66
2023/04/19 05:11:54;;;;;;;10.13;8.43;;;5.70;99.90;;;;;;7369483;19;20037;-66
2023/04/19 05:14:40;;;;;;;12.93;9.30;;;5.70;99.90;;;;;;7369745;19;20026;-62
2023/04/19 05:17:07;;;;;;;10.77;7.97;;;5.80;99.90;;;;;;7371762;19;20018;-63
2023/04/19 05:19:34;;;;;;;10.65;7.55;;;5.80;99.90;;;;;;7367024;19;20032;-63
2023/04/19 05:22:05;;;;;;;13.52;9.25;;;5.90;99.90;;;;;;7370936;19;20026;-63
2023/04/19 05:24:32;;;;;;;11.35;8.15;;;5.90;99.90;;;;;;7369990;19;20809;-63
2023/04/19 05:27:00;;;;;;;10.35;7.80;;;6.40;99.90;;;;;;7370356;19;20138;-64
2023/04/19 05:29:27;;;;;;;14.52;10.55;;;6.20;99.90;;;;;;7373537;19;20014;-63
2023/04/19 05:31:56;;;;;;;13.93;9.82;;;6.20;99.90;;;;;;7369952;19;20018;-63
2023/04/19 05:34:32;;;;;;;10.88;7.90;;;6.20;99.90;;;;;;7372516;19;20007;-63
2023/04/19 05:36:59;;;;;;;9.13;7.28;;;6.20;99.90;;;;;;7371510;19;20037;-63
2023/04/19 05:39:25;;;;;;;11.95;9.52;;;6.20;99.90;;;;;;7366920;19;20023;-66
2023/04/19 05:41:52;;;;;;;10.80;8.35;;;6.10;99.90;;;;;;7366721;19;20131;-66
2023/04/19 05:44:18;;;;;;;14.30;8.73;;;6.20;99.90;;;;;;7371150;19;20881;-66
2023/04/19 05:46:45;;;;;;;9.57;7.53;;;6.40;99.90;;;;;;7370824;19;20790;-66
2023/04/19 05:49:14;;;;;;;10.43;8.00;;;6.50;99.90;;;;;;7370844;19;20024;-66
2023/04/19 05:51:43;;;;;;;8.50;7.43;;;6.70;99.90;;;;;;7370028;19;20026;-66
2023/04/19 05:54:27;;;;;;;9.55;6.40;;;6.80;99.90;;;;;;7371236;19;20014;-64
2023/04/19 05:56:53;;;;;;;9.60;7.00;;;6.90;99.90;;;;;;7369978;19;20367;-66
2023/04/19 05:59:19;;;;;;;10.88;7.47;;;7.10;99.90;;;;;;7371285;19;20025;-64
2023/04/19 06:01:49;;;;;;;9.73;6.80;;;7.30;99.90;;;;;;7371077;19;20018;-66
2023/04/19 06:04:16;;;;;;;9.15;6.28;;;7.30;99.90;;;;;;7372759;19;20565;-66
2023/04/19 06:06:42;;;;;;;8.18;6.20;;;7.50;99.90;;;;;;7366457;19;20018;-64
2023/04/19 06:09:12;;;;;;;8.27;5.82;;;7.60;99.90;;;;;;7368568;19;20106;-63
2023/04/19 06:11:40;;;;;;;10.10;7.07;;;7.70;99.90;;;;;;7365502;19;20018;-64
2023/04/19 06:14:06;;;;;;;9.88;6.70;;;7.90;99.90;;;;;;7373404;19;20042;-67
2023/04/19 06:16:32;;;;;;;12.13;8.95;;;8.00;99.90;;;;;;7373558;19;20019;-67
2023/04/19 06:18:59;;;;;;;9.02;6.72;;;8.10;99.90;;;;;;7369327;19;20489;-63
2023/04/19 06:21:25;;;;;;;19.63;13.85;;;8.20;99.90;;;;;;7368834;19;20018;-66
2023/04/19 06:23:52;;;;;;;14.88;9.27;;;8.30;99.90;;;;;;7372570;19;20022;-67
2023/04/19 06:26:18;;;;;;;19.15;13.70;;;8.40;99.90;;;;;;7371881;19;20606;-67
2023/04/19 06:28:44;;;;;;;8.75;6.07;;;8.50;99.90;;;;;;7368536;19;20482;-66
2023/04/19 06:31:14;;;;;;;9.23;6.10;;;8.60;99.90;;;;;;7368617;19;20633;-64
2023/04/19 06:33:40;;;;;;;9.52;6.28;;;8.70;99.90;;;;;;7367240;19;20018;-66
2023/04/19 06:36:06;;;;;;;8.65;5.38;;;8.80;99.90;;;;;;7369485;19;20026;-64
2023/04/19 06:38:33;;;;;;;13.85;11.52;;;9.00;99.90;;;;;;7370233;19;20022;-66
2023/04/19 06:40:59;;;;;;;7.18;5.53;;;9.10;99.90;;;;;;7364895;19;20889;-67
2023/04/19 06:43:25;;;;;;;9.30;7.07;;;9.10;99.90;;;;;;7372859;19;20014;-64
2023/04/19 06:46:04;;;;;;;18.15;12.30;;;9.30;99.90;;;;;;7374730;19;20015;-64
2023/04/19 06:48:30;;;;;;;9.95;5.53;;;9.40;99.90;;;;;;7373468;19;20010;-64
2023/04/19 06:50:56;;;;;;;11.95;9.80;;;9.50;99.90;;;;;;7370839;19;20018;-67
2023/04/19 06:53:23;;;;;;;11.50;9.43;;;9.70;99.90;;;;;;7373256;19;20031;-67
2023/04/19 06:55:57;;;;;;;6.45;4.50;;;9.80;99.90;;;;;;7370027;19;20664;-63
2023/04/19 06:58:23;;;;;;;7.43;4.90;;;10.00;99.90;;;;;;7370442;19;20018;-63
2023/04/19 07:00:50;;;;;;;12.80;7.85;;;10.10;99.90;;;;;;7372760;19;20019;-61
2023/04/19 07:03:17;;;;;;;8.45;3.72;;;10.20;99.90;;;;;;7375046;19;20022;-61
2023/04/19 07:05:44;;;;;;;9.10;4.75;;;10.50;99.90;;;;;;7371843;19;20014;-65
2023/04/19 07:08:10;;;;;;;6.43;4.15;;;10.70;99.90;;;;;;7373814;19;20018;-62
2023/04/19 07:10:36;;;;;;;7.43;5.80;;;11.10;99.90;;;;;;7371394;19;20022;-62
2023/04/19 07:13:02;;;;;;;10.07;6.55;;;11.00;99.90;;;;;;7369322;19;20018;-61
2023/04/19 07:15:28;;;;;;;8.27;4.20;;;11.20;98.40;;;;;;7367447;19;20041;-61
2023/04/19 07:17:55;;;;;;;9.40;5.00;;;11.30;91.90;;;;;;7369445;19;20010;-62
2023/04/19 07:20:21;;;;;;;8.32;5.20;;;11.30;94.70;;;;;;7371161;19;20022;-65
2023/04/19 07:22:47;;;;;;;6.25;3.25;;;11.60;90.00;;;;;;7370582;19;20022;-65
2023/04/19 07:25:13;;;;;;;4.18;2.70;;;11.60;75.50;;;;;;7372631;19;20029;-65
2023/04/19 07:27:40;;;;;;;10.48;6.00;;;11.80;71.50;;;;;;7369259;19;20049;-65
2023/04/19 07:30:07;;;;;;;4.75;3.20;;;11.80;71.20;;;;;;7372392;19;20019;-65
2023/04/19 07:32:34;;;;;;;5.13;3.30;;;12.30;71.60;;;;;;7368486;19;20023;-61
2023/04/19 07:35:00;;;;;;;5.18;2.80;;;12.50;64.90;;;;;;7370493;19;20014;-64
2023/04/19 07:37:27;;;;;;;4.47;2.90;;;12.70;64.30;;;;;;7371965;19;20026;-64
2023/04/19 07:39:53;;;;;;;9.05;6.15;;;12.90;62.90;;;;;;7370449;19;20018;-65
2023/04/19 07:42:20;;;;;;;4.40;2.58;;;13.00;62.90;;;;;;7370175;19;20019;-65
2023/04/19 07:44:49;;;;;;;5.65;3.90;;;13.10;62.20;;;;;;7374420;19;20010;-66
2023/04/19 07:47:15;;;;;;;8.95;7.13;;;13.50;63.20;;;;;;7375829;19;20015;-65
2023/04/19 07:49:43;;;;;;;7.18;4.97;;;13.40;61.20;;;;;;7373823;19;20022;-65
2023/04/19 07:52:09;;;;;;;4.00;2.40;;;13.50;59.40;;;;;;7376251;19;21842;-65
2023/04/19 07:54:38;;;;;;;6.00;3.38;;;13.60;58.30;;;;;;7379709;19;20014;-65
2023/04/19 07:57:07;;;;;;;6.05;4.00;;;13.80;56.60;;;;;;7378412;19;20363;-65
2023/04/19 07:59:34;;;;;;;5.68;2.75;;;14.00;57.30;;;;;;7378732;19;20485;-64
2023/04/19 08:02:00;;;;;;;8.27;6.22;;;14.10;56.60;;;;;;7377351;19;20014;-61
2023/04/19 08:04:26;;;;;;;9.50;5.72;;;14.50;56.70;;;;;;7378608;19;20018;-61
2023/04/19 08:06:53;;;;;;;8.23;5.78;;;14.50;55.80;;;;;;7376800;19;20018;-61
2023/04/19 08:09:20;;;;;;;3.90;2.83;;;14.50;55.00;;;;;;7373929;19;20022;-61
2023/04/19 08:11:49;;;;;;;8.75;5.90;;;14.40;53.60;;;;;;7376270;19;20034;-61
2023/04/19 08:14:15;;;;;;;5.53;3.17;;;14.60;54.00;;;;;;7374736;19;20789;-65
2023/04/19 08:16:41;;;;;;;8.90;2.50;;;14.90;51.40;;;;;;7377897;19;20011;-65
2023/04/19 08:19:07;;;;;;;5.88;4.03;;;15.30;53.10;;;;;;7376050;19;20035;-65
2023/04/19 08:21:33;;;;;;;6.00;4.97;;;15.30;50.90;;;;;;7377053;19;20094;-65
2023/04/19 08:24:00;;;;;;;4.65;2.83;;;15.50;52.80;;;;;;7373385;19;20022;-61
2023/04/19 08:26:26;;;;;;;6.32;3.30;;;15.50;52.80;;;;;;7371302;19;20030;-61
2023/04/19 08:28:53;;;;;;;5.53;3.60;;;15.60;51.50;;;;;;7375449;19;20050;-61
2023/04/19 08:31:20;;;;;;;6.18;3.83;;;15.70;51.10;;;;;;7376350;19;20027;-61
2023/04/19 08:33:47;;;;;;;6.57;3.90;;;15.90;51.60;;;;;;7376522;19;20777;-61
2023/04/19 08:36:13;;;;;;;5.30;3.70;;;15.90;51.00;;;;;;7379077;19;20482;-65
2023/04/19 08:38:40;;;;;;;5.00;3.65;;;16.20;51.00;;;;;;7374570;19;20022;-65
2023/04/19 08:41:06;;;;;;;6.72;5.30;;;16.60;50.40;;;;;;7377920;19;20094;-65
2023/04/19 08:43:35;;;;;;;8.13;5.13;;;16.30;48.70;;;;;;7372736;19;20014;-65
2023/04/19 08:46:02;;;;;;;5.40;2.90;;;16.30;48.00;;;;;;7375846;19;20070;-65
2023/04/19 08:48:31;;;;;;;5.30;3.55;;;16.10;47.40;;;;;;7375442;19;20367;-65
2023/04/19 08:50:59;;;;;;;7.72;4.78;;;16.30;48.20;;;;;;7375712;19;20460;-65
2023/04/19 08:53:28;;;;;;;6.18;3.17;;;16.20;47.70;;;;;;7373867;19;20094;-65
2023/04/19 08:55:57;;;;;;;4.90;2.95;;;16.20;47.80;;;;;;7370728;19;20019;-66
2023/04/19 08:58:25;;;;;;;5.43;2.88;;;16.30;47.40;;;;;;7373787;19;20014;-63
2023/04/19 09:00:51;;;;;;;5.85;3.05;;;16.20;45.80;;;;;;7374624;19;20021;-60
2023/04/19 09:03:18;;;;;;;4.75;2.75;;;16.50;45.70;;;;;;7374120;19;20022;-66
2023/04/19 09:05:44;;;;;;;3.75;2.47;;;16.40;45.00;;;;;;7375381;19;21012;-65
2023/04/19 09:08:22;;;;;;;5.90;4.45;;;16.40;45.70;;;;;;7372421;19;20073;-65
2023/04/19 09:10:58;;;;;;;8.77;5.05;;;16.50;45.20;;;;;;7375074;19;20029;-60
2023/04/19 09:13:25;;;;;;;4.32;2.50;;;16.50;44.20;;;;;;7373141;19;20021;-60
2023/04/19 09:15:56;;;;;;;6.75;4.22;;;16.70;44.70;;;;;;7375044;19;20122;-61
2023/04/19 09:18:23;;;;;;;7.15;4.30;;;16.70;44.10;;;;;;7370997;19;20022;-60
2023/04/19 09:20:56;;;;;;;4.20;1.98;;;16.50;43.10;;;;;;7373282;19;20034;-61
2023/04/19 09:23:27;;;;;;;6.40;2.50;;;17.00;43.10;;;;;;7369958;19;20104;-61
2023/04/19 09:25:59;;;;;;;6.43;3.47;;;16.80;41.50;;;;;;7375019;19;20494;-65
2023/04/19 09:28:25;;;;;;;7.63;2.45;;;17.00;42.50;;;;;;7369798;19;20017;-65
2023/04/19 09:30:52;;;;;;;5.20;3.17;;;16.80;42.50;;;;;;7366540;19;20014;-65
2023/04/19 09:33:35;;;;;;;3.78;2.42;;;16.80;41.50;;;;;;7373919;19;20099;-65
2023/04/19 09:36:02;;;;;;;5.93;2.40;;;16.80;41.80;;;;;;7372089;19;20018;-63
2023/04/19 09:38:29;;;;;;;4.60;2.63;;;16.90;41.60;;;;;;7370018;19;20022;-66
2023/04/19 09:41:06;;;;;;;3.20;1.90;;;17.50;43.20;;;;;;7366552;19;20018;-65
2023/04/19 09:43:33;;;;;;;4.32;2.00;;;17.40;39.40;;;;;;7368954;19;20014;-60
2023/04/19 09:46:00;;;;;;;5.43;2.28;;;17.60;39.60;;;;;;7372084;19;20035;-60
2023/04/19 09:48:26;;;;;;;6.00;3.58;;;18.00;41.50;;;;;;7372178;19;20512;-60
2023/04/19 09:50:54;;;;;;;12.13;4.45;;;17.90;42.60;;;;;;7370526;19;20860;-61
2023/04/19 09:53:22;;;;;;;9.27;7.38;;;18.50;42.90;;;;;;7372720;19;20031;-60
2023/04/19 09:55:48;;;;;;;7.22;5.80;;;18.50;41.50;;;;;;7368969;19;20769;-60
2023/04/19 09:58:19;;;;;;;6.50;4.65;;;18.40;41.70;;;;;;7376432;19;20018;-60
2023/04/19 10:00:47;;;;;;;9.43;7.60;;;18.50;41.80;;;;;;7369661;19;20019;-61
2023/04/19 10:03:17;;;;;;;4.30;2.88;;;18.60;41.90;;;;;;7371494;19;20035;-61
2023/04/19 10:05:44;;;;;;;5.57;3.58;;;18.70;42.40;;;;;;7369963;19;20028;-60
2023/04/19 10:08:12;;;;;;;6.55;4.63;;;19.10;41.40;;;;;;7370548;19;20025;-61
2023/04/19 10:10:45;;;;;;;4.72;2.92;;;18.90;40.70;;;;;;7368756;19;20018;-60
2023/04/19 10:13:12;;;;;;;3.35;2.00;;;19.00;40.40;;;;;;7369341;19;20272;-60
2023/04/19 10:15:42;;;;;;;8.93;4.60;;;18.90;40.00;;;;;;7365538;19;20022;-60
2023/04/19 10:18:09;;;;;;;4.57;1.85;;;19.30;40.10;;;;;;7367612;19;20660;-65
2023/04/19 10:20:55;;;;;;;4.28;1.77;;;19.50;39.00;;;;;;7371834;19;20379;-65
2023/04/19 10:23:22;;;;;;;3.17;2.22;;;19.20;37.50;;;;;;7366759;19;20011;-65
2023/04/19 10:25:54;;;;;;;5.05;1.85;;;19.50;38.90;;;;;;7368017;19;20029;-66
2023/04/19 10:28:21;;;;;;;4.47;2.50;;;19.30;39.80;;;;;;7370368;19;20018;-65
2023/04/19 10:31:01;;;;;;;3.83;2.30;;;19.40;39.00;;;;;;7372939;19;20099;-66
2023/04/19 10:33:33;;;;;;;9.65;6.47;;;19.90;38.40;;;;;;7369203;19;20849;-65
2023/04/19 10:36:00;;;;;;;9.13;5.57;;;19.50;39.10;;;;;;7370428;19;22538;-65
2023/04/19 10:38:40;;;;;;;6.47;3.88;;;19.80;38.00;;;;;;7370432;19;20057;-65
2023/04/19 10:41:13;;;;;;;5.05;3.55;;;19.90;36.20;;;;;;7373358;19;20025;-66
2023/04/19 10:43:42;;;;;;;8.07;5.40;;;19.60;38.20;;;;;;7369866;19;20129;-65
2023/04/19 10:46:21;;;;;;;6.63;4.88;;;19.60;37.80;;;;;;7372940;19;20111;-65
2023/04/19 10:48:58;;;;;;;9.68;4.05;;;19.80;39.00;;;;;;7367530;19;20022;-60
2023/04/19 10:51:43;;;;;;;6.85;3.67;;;19.70;37.60;;;;;;7367168;19;20585;-60
2023/04/19 10:54:31;;;;;;;3.65;2.63;;;19.90;37.60;;;;;;7372368;19;20778;-60
2023/04/19 10:57:09;;;;;;;4.60;2.30;;;20.20;37.30;;;;;;7369333;19;20034;-60
2023/04/19 10:59:36;;;;;;;5.18;2.30;;;19.70;38.00;;;;;;7371246;19;20022;-60
2023/04/19 11:02:26;;;;;;;6.90;3.70;;;20.00;38.90;;;;;;7368918;19;20018;-66
2023/04/19 11:04:53;;;;;;;4.43;2.30;;;19.90;38.10;;;;;;7370170;19;20754;-66
2023/04/19 11:07:22;;;;;;;7.07;4.63;;;20.30;37.70;;;;;;7367934;19;20887;-60
2023/04/19 11:09:49;;;;;;;6.50;2.85;;;20.70;37.80;;;;;;7371346;19;20022;-61
2023/04/19 11:12:20;;;;;;;4.43;2.35;;;21.20;38.60;;;;;;7370223;19;20522;-61
2023/04/19 11:14:52;;;;;;;3.70;1.97;;;20.90;37.40;;;;;;7368142;19;20018;-60
2023/04/19 11:17:24;;;;;;;7.38;4.38;;;20.90;38.50;;;;;;7365885;19;20046;-61
2023/04/19 11:19:55;;;;;;;6.45;3.53;;;20.60;37.70;;;;;;7365258;19;20022;-61
2023/04/19 11:22:32;;;;;;;;;;;20.60;37.90;;;;;;7369379;19;20707;-67
2023/04/19 11:25:17;;;;;;;6.13;3.20;;;20.60;38.60;;;;;;7366637;19;19926;-66
2023/04/19 11:27:49;;;;;;;5.22;3.05;;;20.90;38.90;;;;;;7365331;19;20370;-66
2023/04/19 11:30:19;;;;;;;4.80;3.15;;;20.90;38.50;;;;;;7368608;19;20029;-66
2023/04/19 11:32:53;;;;;;;5.63;2.90;;;20.70;38.20;;;;;;7364466;19;20015;-66
2023/04/19 11:35:27;;;;;;;3.25;2.15;;;20.50;37.40;;;;;;7369805;19;20023;-66
2023/04/19 11:37:55;;;;;;;4.28;2.42;;;20.50;38.40;;;;;;7365056;19;20026;-66
2023/04/19 11:40:25;;;;;;;6.47;3.35;;;20.50;37.70;;;;;;7368568;19;20026;-66
2023/04/19 11:42:56;;;;;;;3.58;2.22;;;20.60;38.60;;;;;;7366493;19;20014;-66
2023/04/19 11:45:33;;;;;;;2.80;1.90;;;20.70;38.10;;;;;;7370133;19;20006;-66
2023/04/19 11:48:00;;;;;;;7.88;2.90;;;20.70;38.10;;;;;;7367758;19;20060;-66
2023/04/19 11:50:32;;;;;;;5.07;2.70;;;20.50;37.80;;;;;;7368885;19;20869;-64
2023/04/19 11:53:08;;;;;;;4.95;2.70;;;20.90;38.50;;;;;;7367462;19;20022;-65
2023/04/19 11:55:34;;;;;;;5.80;3.67;;;20.70;38.20;;;;;;7368151;19;20106;-66
2023/04/19 11:58:00;;;;;;;8.55;6.15;;;20.90;37.20;;;;;;7366483;19;20364;-66
2023/04/19 12:00:28;;;;;;;8.80;5.20;;;20.70;37.90;;;;;;7367976;19;20022;-66
2023/04/19 12:02:54;;;;;;;9.32;6.25;;;20.60;38.40;;;;;;7363009;19;20042;-60
2023/04/19 12:05:21;;;;;;;7.50;5.32;;;20.90;38.50;;;;;;7364843;19;20029;-66
2023/04/19 12:08:04;;;;;;;8.18;6.85;;;21.20;38.00;;;;;;7370746;19;20019;-66
2023/04/19 12:10:33;;;;;;;9.98;6.97;;;21.80;38.20;;;;;;7368030;19;20022;-61
2023/04/19 12:12:59;;;;;;;8.48;4.72;;;21.50;38.10;;;;;;7370721;19;20090;-60
2023/04/19 12:15:47;;;;;;;5.35;4.03;;;21.50;37.50;;;;;;7367627;19;20052;-65
2023/04/19 12:18:14;;;;;;;8.80;4.68;;;21.90;37.20;;;;;;7367264;19;20014;-60
2023/04/19 12:20:49;;;;;;;6.22;4.55;;;21.60;37.70;;;;;;7366267;19;20784;-61
2023/04/19 12:23:16;;;;;;;7.40;3.85;;;21.50;38.30;;;;;;7368437;19;20494;-61
2023/04/19 12:25:45;;;;;;;5.38;3.28;;;21.70;38.40;;;;;;7365580;19;20014;-61
2023/04/19 12:28:13;;;;;;;6.00;2.83;;;21.90;38.20;;;;;;7363695;19;20058;-61
2023/04/19 12:30:40;;;;;;;6.20;4.13;;;21.60;38.60;;;;;;7371717;19;20014;-61
2023/04/19 12:33:07;;;;;;;6.72;4.85;;;21.30;38.20;;;;;;7372095;19;20014;-61
2023/04/19 12:35:34;;;;;;;5.85;3.90;;;21.60;39.00;;;;;;7364896;19;20033;-61
2023/04/19 12:38:01;;;;;;;5.93;4.55;;;21.50;37.80;;;;;;7370680;19;20026;-61
2023/04/19 12:40:29;;;;;;;14.20;11.65;;;21.20;38.90;;;;;;7375587;19;20082;-62
2023/04/19 12:42:56;;;;;;;8.73;7.10;;;21.20;39.10;;;;;;7374278;19;20046;-61
2023/04/19 12:45:22;;;;;;;8.70;5.70;;;21.40;39.40;;;;;;7372367;19;20493;-61
2023/04/19 12:47:48;;;;;;;9.20;6.47;;;21.00;38.30;;;;;;7365261;19;20033;-61
2023/04/19 12:50:15;;;;;;;4.47;3.13;;;21.50;38.60;;;;;;7371933;19;20019;-62
2023/04/19 12:52:42;;;;;;;5.68;3.30;;;21.70;38.30;;;;;;7376254;19;20482;-61